sensor_id;sensor_type;location;lat;lon;timestamp;P1;durP1;ratioP1;P2;durP2;ratioP2
51194;SDS011;37259;49.972;19.850;2023-03-15T00:00:14;4.5;;;2.5;;
51194;SDS011;37259;49.972;19.850;2023-03-15T00:01:15;4.5;;;2.5;;
51194;SDS011;37259;49.972;19.850;2023-03-15T00:02:14;4.5;;;2.5;;
51194;SDS011;37259;49.972;19.850;2023-03-15T00:03:14;4.5;;;2.5;;
51194;SDS011;37259;49.972;19.850;2023-03-15T00:04:14;4.5;;;2.5;;
51194;SDS011;37259;49.972;19.850;2023-03-15T00:05:14;4.5;;;2.5;;
51194;SDS011;37259;49.972;19.850;2023-03-15T00:06:14;4.5;;;2.5;;
51194;SDS011;37259;49.972;19.850;2023-03-15T00:07:14;4.5;;;2.5;;
51194;SDS011;37259;49.972;19.850;2023-03-15T00:08:14;8.7;;;4.5;;
51194;SDS011;37259;49.972;19.850;2023-03-15T00:09:14;8.7;;;4.5;;
51194;SDS011;37259;49.972;19.850;2023-03-15T00:10:14;8.7;;;4.5;;
51194;SDS011;37259;49.972;19.850;2023-03-15T00:11:14;8.7;;;4.5;;
51194;SDS011;37259;49.972;19.850;2023-03-15T00:12:14;8.7;;;4.5;;
51194;SDS011;37259;49.972;19.850;2023-03-15T00:13:14;8.7;;;4.5;;
51194;SDS011;37259;49.972;19.850;2023-03-15T00:14:14;8.7;;;4.5;;
51194;SDS011;37259;49.972;19.850;2023-03-15T00:15:14;8.7;;;4.5;;
51194;SDS011;37259;49.972;19.850;2023-03-15T00:16:14;8.7;;;4.5;;
51194;SDS011;37259;49.972;19.850;2023-03-15T00:17:14;8.7;;;4.5;;
51194;SDS011;37259;49.972;19.850;2023-03-15T00:18:14;8.7;;;4.5;;
51194;SDS011;37259;49.972;19.850;2023-03-15T00:19:14;8.7;;;4.5;;
51194;SDS011;37259;49.972;19.850;2023-03-15T00:20:14;8.7;;;4.5;;
51194;SDS011;37259;49.972;19.850;2023-03-15T00:21:14;8.7;;;4.5;;
51194;SDS011;37259;49.972;19.850;2023-03-15T00:22:14;8.7;;;4.5;;
51194;SDS011;37259;49.972;19.850;2023-03-15T00:23:14;8.7;;;4.5;;
51194;SDS011;37259;49.972;19.850;2023-03-15T00:24:14;8.7;;;4.5;;
51194;SDS011;37259;49.972;19.850;2023-03-15T00:25:14;8.7;;;4.5;;
51194;SDS011;37259;49.972;19.850;2023-03-15T00:26:14;8.7;;;4.5;;
51194;SDS011;37259;49.972;19.850;2023-03-15T00:27:14;8.7;;;4.5;;
51194;SDS011;37259;49.972;19.850;2023-03-15T00:28:14;8.7;;;4.5;;
51194;SDS011;37259;49.972;19.850;2023-03-15T00:29:14;8.7;;;4.5;;
51194;SDS011;37259;49.972;19.850;2023-03-15T00:30:14;8.7;;;4.5;;
51194;SDS011;37259;49.972;19.850;2023-03-15T00:31:15;8.7;;;4.5;;
51194;SDS011;37259;49.972;19.850;2023-03-15T00:32:14;8.7;;;4.5;;
51194;SDS011;37259;49.972;19.850;2023-03-15T00:33:14;8.7;;;4.5;;
51194;SDS011;37259;49.972;19.850;2023-03-15T00:34:14;8.7;;;4.5;;
51194;SDS011;37259;49.972;19.850;2023-03-15T00:35:14;8.7;;;4.5;;
51194;SDS011;37259;49.972;19.850;2023-03-15T00:36:14;8.7;;;4.5;;
51194;SDS011;37259;49.972;19.850;2023-03-15T00:37:14;8.7;;;4.5;;
51194;SDS011;37259;49.972;19.850;2023-03-15T00:38:14;10.6;;;3;;
51194;SDS011;37259;49.972;19.850;2023-03-15T00:39:14;10.6;;;3;;
51194;SDS011;37259;49.972;19.850;2023-03-15T00:40:14;10.6;;;3;;
51194;SDS011;37259;49.972;19.850;2023-03-15T00:41:14;10.6;;;3;;
51194;SDS011;37259;49.972;19.850;2023-03-15T00:42:14;10.6;;;3;;
51194;SDS011;37259;49.972;19.850;2023-03-15T00:43:14;10.6;;;3;;
51194;SDS011;37259;49.972;19.850;2023-03-15T00:44:14;10.6;;;3;;
51194;SDS011;37259;49.972;19.850;2023-03-15T00:45:14;10.6;;;3;;
51194;SDS011;37259;49.972;19.850;2023-03-15T00:46:15;10.6;;;3;;
51194;SDS011;37259;49.972;19.850;2023-03-15T00:47:14;10.6;;;3;;
51194;SDS011;37259;49.972;19.850;2023-03-15T00:48:14;10.6;;;3;;
51194;SDS011;37259;49.972;19.850;2023-03-15T00:49:14;10.6;;;3;;
51194;SDS011;37259;49.972;19.850;2023-03-15T00:50:14;10.6;;;3;;
51194;SDS011;37259;49.972;19.850;2023-03-15T00:51:15;10.6;;;3;;
51194;SDS011;37259;49.972;19.850;2023-03-15T00:52:14;10.6;;;3;;
51194;SDS011;37259;49.972;19.850;2023-03-15T00:53:14;10.6;;;3;;
51194;SDS011;37259;49.972;19.850;2023-03-15T00:54:14;10.6;;;3;;
51194;SDS011;37259;49.972;19.850;2023-03-15T00:55:15;10.6;;;3;;
51194;SDS011;37259;49.972;19.850;2023-03-15T00:56:15;10.6;;;3;;
51194;SDS011;37259;49.972;19.850;2023-03-15T00:57:14;10.6;;;3;;
51194;SDS011;37259;49.972;19.850;2023-03-15T00:58:14;10.6;;;3;;
51194;SDS011;37259;49.972;19.850;2023-03-15T00:59:14;10.6;;;3;;
51194;SDS011;37259;49.972;19.850;2023-03-15T01:00:15;10.6;;;3;;
51194;SDS011;37259;49.972;19.850;2023-03-15T01:01:15;10.6;;;3;;
51194;SDS011;37259;49.972;19.850;2023-03-15T01:02:14;10.6;;;3;;
51194;SDS011;37259;49.972;19.850;2023-03-15T01:03:14;10.6;;;3;;
51194;SDS011;37259;49.972;19.850;2023-03-15T01:04:14;10.6;;;3;;
51194;SDS011;37259;49.972;19.850;2023-03-15T01:05:14;10.6;;;3;;
51194;SDS011;37259;49.972;19.850;2023-03-15T01:06:15;10.6;;;3;;
51194;SDS011;37259;49.972;19.850;2023-03-15T01:07:14;10.6;;;3;;
51194;SDS011;37259;49.972;19.850;2023-03-15T01:08:14;5.6;;;2.9;;
51194;SDS011;37259;49.972;19.850;2023-03-15T01:09:14;5.6;;;2.9;;
51194;SDS011;37259;49.972;19.850;2023-03-15T01:10:14;5.6;;;2.9;;
51194;SDS011;37259;49.972;19.850;2023-03-15T01:11:15;5.6;;;2.9;;
51194;SDS011;37259;49.972;19.850;2023-03-15T01:12:14;5.6;;;2.9;;
51194;SDS011;37259;49.972;19.850;2023-03-15T01:13:14;5.6;;;2.9;;
51194;SDS011;37259;49.972;19.850;2023-03-15T01:14:14;5.6;;;2.9;;
51194;SDS011;37259;49.972;19.850;2023-03-15T01:15:14;5.6;;;2.9;;
51194;SDS011;37259;49.972;19.850;2023-03-15T01:16:14;5.6;;;2.9;;
51194;SDS011;37259;49.972;19.850;2023-03-15T01:17:14;5.6;;;2.9;;
51194;SDS011;37259;49.972;19.850;2023-03-15T01:18:14;5.6;;;2.9;;
51194;SDS011;37259;49.972;19.850;2023-03-15T01:19:14;5.6;;;2.9;;
51194;SDS011;37259;49.972;19.850;2023-03-15T01:20:14;5.6;;;2.9;;
51194;SDS011;37259;49.972;19.850;2023-03-15T01:21:14;5.6;;;2.9;;
51194;SDS011;37259;49.972;19.850;2023-03-15T01:22:14;5.6;;;2.9;;
51194;SDS011;37259;49.972;19.850;2023-03-15T01:23:14;5.6;;;2.9;;
51194;SDS011;37259;49.972;19.850;2023-03-15T01:24:14;5.6;;;2.9;;
51194;SDS011;37259;49.972;19.850;2023-03-15T01:25:14;5.6;;;2.9;;
51194;SDS011;37259;49.972;19.850;2023-03-15T01:26:14;5.6;;;2.9;;
51194;SDS011;37259;49.972;19.850;2023-03-15T01:27:14;5.6;;;2.9;;
51194;SDS011;37259;49.972;19.850;2023-03-15T01:28:14;5.6;;;2.9;;
51194;SDS011;37259;49.972;19.850;2023-03-15T01:29:14;5.6;;;2.9;;
51194;SDS011;37259;49.972;19.850;2023-03-15T01:30:14;5.6;;;2.9;;
51194;SDS011;37259;49.972;19.850;2023-03-15T01:31:16;5.6;;;2.9;;
51194;SDS011;37259;49.972;19.850;2023-03-15T01:32:14;5.6;;;2.9;;
51194;SDS011;37259;49.972;19.850;2023-03-15T01:33:14;5.6;;;2.9;;
51194;SDS011;37259;49.972;19.850;2023-03-15T01:34:14;5.6;;;2.9;;
51194;SDS011;37259;49.972;19.850;2023-03-15T01:35:14;5.6;;;2.9;;
51194;SDS011;37259;49.972;19.850;2023-03-15T01:36:14;5.6;;;2.9;;
51194;SDS011;37259;49.972;19.850;2023-03-15T01:37:14;5.6;;;2.9;;
51194;SDS011;37259;49.972;19.850;2023-03-15T01:38:14;6.9;;;4;;
51194;SDS011;37259;49.972;19.850;2023-03-15T01:39:14;6.9;;;4;;
51194;SDS011;37259;49.972;19.850;2023-03-15T01:40:14;6.9;;;4;;
51194;SDS011;37259;49.972;19.850;2023-03-15T01:41:17;6.9;;;4;;
51194;SDS011;37259;49.972;19.850;2023-03-15T01:42:14;6.9;;;4;;
51194;SDS011;37259;49.972;19.850;2023-03-15T01:43:15;6.9;;;4;;
51194;SDS011;37259;49.972;19.850;2023-03-15T01:44:14;6.9;;;4;;
51194;SDS011;37259;49.972;19.850;2023-03-15T01:45:48;6.9;;;4;;
51194;SDS011;37259;49.972;19.850;2023-03-15T01:46:16;6.9;;;4;;
51194;SDS011;37259;49.972;19.850;2023-03-15T01:47:14;6.9;;;4;;
51194;SDS011;37259;49.972;19.850;2023-03-15T01:48:14;6.9;;;4;;
51194;SDS011;37259;49.972;19.850;2023-03-15T01:49:15;6.9;;;4;;
51194;SDS011;37259;49.972;19.850;2023-03-15T01:50:14;6.9;;;4;;
51194;SDS011;37259;49.972;19.850;2023-03-15T01:51:15;6.9;;;4;;
51194;SDS011;37259;49.972;19.850;2023-03-15T01:52:14;6.9;;;4;;
51194;SDS011;37259;49.972;19.850;2023-03-15T01:53:14;6.9;;;4;;
51194;SDS011;37259;49.972;19.850;2023-03-15T01:54:15;6.9;;;4;;
51194;SDS011;37259;49.972;19.850;2023-03-15T01:55:15;6.9;;;4;;
51194;SDS011;37259;49.972;19.850;2023-03-15T01:56:14;6.9;;;4;;
51194;SDS011;37259;49.972;19.850;2023-03-15T01:57:15;6.9;;;4;;
51194;SDS011;37259;49.972;19.850;2023-03-15T01:58:14;6.9;;;4;;
51194;SDS011;37259;49.972;19.850;2023-03-15T01:59:14;6.9;;;4;;
51194;SDS011;37259;49.972;19.850;2023-03-15T02:00:15;6.9;;;4;;
51194;SDS011;37259;49.972;19.850;2023-03-15T02:01:14;6.9;;;4;;
51194;SDS011;37259;49.972;19.850;2023-03-15T02:02:14;6.9;;;4;;
51194;SDS011;37259;49.972;19.850;2023-03-15T02:03:15;6.9;;;4;;
51194;SDS011;37259;49.972;19.850;2023-03-15T02:04:15;6.9;;;4;;
51194;SDS011;37259;49.972;19.850;2023-03-15T02:05:16;6.9;;;4;;
51194;SDS011;37259;49.972;19.850;2023-03-15T02:06:15;6.9;;;4;;
51194;SDS011;37259;49.972;19.850;2023-03-15T02:07:14;6.9;;;4;;
51194;SDS011;37259;49.972;19.850;2023-03-15T02:08:14;3.1;;;1.5;;
51194;SDS011;37259;49.972;19.850;2023-03-15T02:09:14;3.1;;;1.5;;
51194;SDS011;37259;49.972;19.850;2023-03-15T02:10:14;3.1;;;1.5;;
51194;SDS011;37259;49.972;19.850;2023-03-15T02:11:14;3.1;;;1.5;;
51194;SDS011;37259;49.972;19.850;2023-03-15T02:12:14;3.1;;;1.5;;
51194;SDS011;37259;49.972;19.850;2023-03-15T02:13:15;3.1;;;1.5;;
51194;SDS011;37259;49.972;19.850;2023-03-15T02:14:14;3.1;;;1.5;;
51194;SDS011;37259;49.972;19.850;2023-03-15T02:15:14;3.1;;;1.5;;
51194;SDS011;37259;49.972;19.850;2023-03-15T02:16:14;3.1;;;1.5;;
51194;SDS011;37259;49.972;19.850;2023-03-15T02:17:14;3.1;;;1.5;;
51194;SDS011;37259;49.972;19.850;2023-03-15T02:18:14;3.1;;;1.5;;
51194;SDS011;37259;49.972;19.850;2023-03-15T02:19:18;3.1;;;1.5;;
51194;SDS011;37259;49.972;19.850;2023-03-15T02:20:17;3.1;;;1.5;;
51194;SDS011;37259;49.972;19.850;2023-03-15T02:21:18;3.1;;;1.5;;
51194;SDS011;37259;49.972;19.850;2023-03-15T02:22:17;3.1;;;1.5;;
51194;SDS011;37259;49.972;19.850;2023-03-15T02:23:14;3.1;;;1.5;;
51194;SDS011;37259;49.972;19.850;2023-03-15T02:24:17;3.1;;;1.5;;
51194;SDS011;37259;49.972;19.850;2023-03-15T02:25:15;3.1;;;1.5;;
51194;SDS011;37259;49.972;19.850;2023-03-15T02:26:16;3.1;;;1.5;;
51194;SDS011;37259;49.972;19.850;2023-03-15T02:27:19;3.1;;;1.5;;
51194;SDS011;37259;49.972;19.850;2023-03-15T02:28:14;3.1;;;1.5;;
51194;SDS011;37259;49.972;19.850;2023-03-15T02:29:14;3.1;;;1.5;;
51194;SDS011;37259;49.972;19.850;2023-03-15T02:30:14;3.1;;;1.5;;
51194;SDS011;37259;49.972;19.850;2023-03-15T02:31:14;3.1;;;1.5;;
51194;SDS011;37259;49.972;19.850;2023-03-15T02:32:14;3.1;;;1.5;;
51194;SDS011;37259;49.972;19.850;2023-03-15T02:33:15;3.1;;;1.5;;
51194;SDS011;37259;49.972;19.850;2023-03-15T02:34:14;3.1;;;1.5;;
51194;SDS011;37259;49.972;19.850;2023-03-15T02:35:21;3.1;;;1.5;;
51194;SDS011;37259;49.972;19.850;2023-03-15T02:36:15;3.1;;;1.5;;
51194;SDS011;37259;49.972;19.850;2023-03-15T02:37:14;3.1;;;1.5;;
51194;SDS011;37259;49.972;19.850;2023-03-15T02:38:14;3;;;1.6;;
51194;SDS011;37259;49.972;19.850;2023-03-15T02:39:15;3;;;1.6;;
51194;SDS011;37259;49.972;19.850;2023-03-15T02:40:15;3;;;1.6;;
51194;SDS011;37259;49.972;19.850;2023-03-15T02:41:15;3;;;1.6;;
51194;SDS011;37259;49.972;19.850;2023-03-15T02:42:14;3;;;1.6;;
51194;SDS011;37259;49.972;19.850;2023-03-15T02:43:15;3;;;1.6;;
51194;SDS011;37259;49.972;19.850;2023-03-15T02:44:15;3;;;1.6;;
51194;SDS011;37259;49.972;19.850;2023-03-15T02:45:14;3;;;1.6;;
51194;SDS011;37259;49.972;19.850;2023-03-15T02:46:14;3;;;1.6;;
51194;SDS011;37259;49.972;19.850;2023-03-15T02:47:15;3;;;1.6;;
51194;SDS011;37259;49.972;19.850;2023-03-15T02:48:14;3;;;1.6;;
51194;SDS011;37259;49.972;19.850;2023-03-15T02:49:14;3;;;1.6;;
51194;SDS011;37259;49.972;19.850;2023-03-15T02:50:14;3;;;1.6;;
51194;SDS011;37259;49.972;19.850;2023-03-15T02:51:16;3;;;1.6;;
51194;SDS011;37259;49.972;19.850;2023-03-15T02:52:14;3;;;1.6;;
51194;SDS011;37259;49.972;19.850;2023-03-15T02:53:14;3;;;1.6;;
51194;SDS011;37259;49.972;19.850;2023-03-15T02:54:14;3;;;1.6;;
51194;SDS011;37259;49.972;19.850;2023-03-15T02:55:14;3;;;1.6;;
51194;SDS011;37259;49.972;19.850;2023-03-15T02:56:14;3;;;1.6;;
51194;SDS011;37259;49.972;19.850;2023-03-15T02:57:15;3;;;1.6;;
51194;SDS011;37259;49.972;19.850;2023-03-15T02:58:14;3;;;1.6;;
51194;SDS011;37259;49.972;19.850;2023-03-15T02:59:14;3;;;1.6;;
51194;SDS011;37259;49.972;19.850;2023-03-15T03:00:14;3;;;1.6;;
51194;SDS011;37259;49.972;19.850;2023-03-15T03:01:14;3;;;1.6;;
51194;SDS011;37259;49.972;19.850;2023-03-15T03:02:14;3;;;1.6;;
51194;SDS011;37259;49.972;19.850;2023-03-15T03:03:14;3;;;1.6;;
51194;SDS011;37259;49.972;19.850;2023-03-15T03:04:14;3;;;1.6;;
51194;SDS011;37259;49.972;19.850;2023-03-15T03:05:14;3;;;1.6;;
51194;SDS011;37259;49.972;19.850;2023-03-15T03:06:14;3;;;1.6;;
51194;SDS011;37259;49.972;19.850;2023-03-15T03:07:14;3;;;1.6;;
51194;SDS011;37259;49.972;19.850;2023-03-15T03:08:14;2.3;;;1.3;;
51194;SDS011;37259;49.972;19.850;2023-03-15T03:09:14;2.3;;;1.3;;
51194;SDS011;37259;49.972;19.850;2023-03-15T03:11:14;2.3;;;1.3;;
51194;SDS011;37259;49.972;19.850;2023-03-15T03:12:14;2.3;;;1.3;;
51194;SDS011;37259;49.972;19.850;2023-03-15T03:13:14;2.3;;;1.3;;
51194;SDS011;37259;49.972;19.850;2023-03-15T03:14:14;2.3;;;1.3;;
51194;SDS011;37259;49.972;19.850;2023-03-15T03:15:14;2.3;;;1.3;;
51194;SDS011;37259;49.972;19.850;2023-03-15T03:16:14;2.3;;;1.3;;
51194;SDS011;37259;49.972;19.850;2023-03-15T03:17:14;2.3;;;1.3;;
51194;SDS011;37259;49.972;19.850;2023-03-15T03:18:14;2.3;;;1.3;;
51194;SDS011;37259;49.972;19.850;2023-03-15T03:19:14;2.3;;;1.3;;
51194;SDS011;37259;49.972;19.850;2023-03-15T03:20:14;2.3;;;1.3;;
51194;SDS011;37259;49.972;19.850;2023-03-15T03:21:14;2.3;;;1.3;;
51194;SDS011;37259;49.972;19.850;2023-03-15T03:22:14;2.3;;;1.3;;
51194;SDS011;37259;49.972;19.850;2023-03-15T03:23:14;2.3;;;1.3;;
51194;SDS011;37259;49.972;19.850;2023-03-15T03:24:14;2.3;;;1.3;;
51194;SDS011;37259;49.972;19.850;2023-03-15T03:25:14;2.3;;;1.3;;
51194;SDS011;37259;49.972;19.850;2023-03-15T03:26:15;2.3;;;1.3;;
51194;SDS011;37259;49.972;19.850;2023-03-15T03:27:14;2.3;;;1.3;;
51194;SDS011;37259;49.972;19.850;2023-03-15T03:28:14;2.3;;;1.3;;
51194;SDS011;37259;49.972;19.850;2023-03-15T03:29:14;2.3;;;1.3;;
51194;SDS011;37259;49.972;19.850;2023-03-15T03:30:14;2.3;;;1.3;;
51194;SDS011;37259;49.972;19.850;2023-03-15T03:31:15;2.3;;;1.3;;
51194;SDS011;37259;49.972;19.850;2023-03-15T03:32:14;2.3;;;1.3;;
51194;SDS011;37259;49.972;19.850;2023-03-15T03:33:14;2.3;;;1.3;;
51194;SDS011;37259;49.972;19.850;2023-03-15T03:34:14;2.3;;;1.3;;
51194;SDS011;37259;49.972;19.850;2023-03-15T03:35:14;2.3;;;1.3;;
51194;SDS011;37259;49.972;19.850;2023-03-15T03:36:14;2.3;;;1.3;;
51194;SDS011;37259;49.972;19.850;2023-03-15T03:37:15;2.3;;;1.3;;
51194;SDS011;37259;49.972;19.850;2023-03-15T03:38:14;4.2;;;1.5;;
51194;SDS011;37259;49.972;19.850;2023-03-15T03:39:14;4.2;;;1.5;;
51194;SDS011;37259;49.972;19.850;2023-03-15T03:40:14;4.2;;;1.5;;
51194;SDS011;37259;49.972;19.850;2023-03-15T03:41:14;4.2;;;1.5;;
51194;SDS011;37259;49.972;19.850;2023-03-15T03:42:14;4.2;;;1.5;;
51194;SDS011;37259;49.972;19.850;2023-03-15T03:43:14;4.2;;;1.5;;
51194;SDS011;37259;49.972;19.850;2023-03-15T03:44:14;4.2;;;1.5;;
51194;SDS011;37259;49.972;19.850;2023-03-15T03:45:14;4.2;;;1.5;;
51194;SDS011;37259;49.972;19.850;2023-03-15T03:46:14;4.2;;;1.5;;
51194;SDS011;37259;49.972;19.850;2023-03-15T03:47:14;4.2;;;1.5;;
51194;SDS011;37259;49.972;19.850;2023-03-15T03:48:14;4.2;;;1.5;;
51194;SDS011;37259;49.972;19.850;2023-03-15T03:49:14;4.2;;;1.5;;
51194;SDS011;37259;49.972;19.850;2023-03-15T03:50:14;4.2;;;1.5;;
51194;SDS011;37259;49.972;19.850;2023-03-15T03:51:14;4.2;;;1.5;;
51194;SDS011;37259;49.972;19.850;2023-03-15T03:52:14;4.2;;;1.5;;
51194;SDS011;37259;49.972;19.850;2023-03-15T03:53:14;4.2;;;1.5;;
51194;SDS011;37259;49.972;19.850;2023-03-15T03:54:14;4.2;;;1.5;;
51194;SDS011;37259;49.972;19.850;2023-03-15T03:55:14;4.2;;;1.5;;
51194;SDS011;37259;49.972;19.850;2023-03-15T03:56:14;4.2;;;1.5;;
51194;SDS011;37259;49.972;19.850;2023-03-15T03:57:14;4.2;;;1.5;;
51194;SDS011;37259;49.972;19.850;2023-03-15T03:58:14;4.2;;;1.5;;
51194;SDS011;37259;49.972;19.850;2023-03-15T03:59:14;4.2;;;1.5;;
51194;SDS011;37259;49.972;19.850;2023-03-15T04:00:14;4.2;;;1.5;;
51194;SDS011;37259;49.972;19.850;2023-03-15T04:01:14;4.2;;;1.5;;
51194;SDS011;37259;49.972;19.850;2023-03-15T04:02:14;4.2;;;1.5;;
51194;SDS011;37259;49.972;19.850;2023-03-15T04:03:14;4.2;;;1.5;;
51194;SDS011;37259;49.972;19.850;2023-03-15T04:04:14;4.2;;;1.5;;
51194;SDS011;37259;49.972;19.850;2023-03-15T04:05:14;4.2;;;1.5;;
51194;SDS011;37259;49.972;19.850;2023-03-15T04:06:14;4.2;;;1.5;;
51194;SDS011;37259;49.972;19.850;2023-03-15T04:07:14;4.2;;;1.5;;
51194;SDS011;37259;49.972;19.850;2023-03-15T04:08:14;3.8;;;1.7;;
51194;SDS011;37259;49.972;19.850;2023-03-15T04:09:15;3.8;;;1.7;;
51194;SDS011;37259;49.972;19.850;2023-03-15T04:10:14;3.8;;;1.7;;
51194;SDS011;37259;49.972;19.850;2023-03-15T04:11:14;3.8;;;1.7;;
51194;SDS011;37259;49.972;19.850;2023-03-15T04:12:14;3.8;;;1.7;;
51194;SDS011;37259;49.972;19.850;2023-03-15T04:13:14;3.8;;;1.7;;
51194;SDS011;37259;49.972;19.850;2023-03-15T04:14:14;3.8;;;1.7;;
51194;SDS011;37259;49.972;19.850;2023-03-15T04:15:14;3.8;;;1.7;;
51194;SDS011;37259;49.972;19.850;2023-03-15T04:16:14;3.8;;;1.7;;
51194;SDS011;37259;49.972;19.850;2023-03-15T04:17:14;3.8;;;1.7;;
51194;SDS011;37259;49.972;19.850;2023-03-15T04:18:14;3.8;;;1.7;;
51194;SDS011;37259;49.972;19.850;2023-03-15T04:19:14;3.8;;;1.7;;
51194;SDS011;37259;49.972;19.850;2023-03-15T04:20:14;3.8;;;1.7;;
51194;SDS011;37259;49.972;19.850;2023-03-15T04:21:14;3.8;;;1.7;;
51194;SDS011;37259;49.972;19.850;2023-03-15T04:22:14;3.8;;;1.7;;
51194;SDS011;37259;49.972;19.850;2023-03-15T04:23:14;3.8;;;1.7;;
51194;SDS011;37259;49.972;19.850;2023-03-15T04:24:14;3.8;;;1.7;;
51194;SDS011;37259;49.972;19.850;2023-03-15T04:25:14;3.8;;;1.7;;
51194;SDS011;37259;49.972;19.850;2023-03-15T04:26:14;3.8;;;1.7;;
51194;SDS011;37259;49.972;19.850;2023-03-15T04:27:14;3.8;;;1.7;;
51194;SDS011;37259;49.972;19.850;2023-03-15T04:28:14;3.8;;;1.7;;
51194;SDS011;37259;49.972;19.850;2023-03-15T04:29:14;3.8;;;1.7;;
51194;SDS011;37259;49.972;19.850;2023-03-15T04:30:14;3.8;;;1.7;;
51194;SDS011;37259;49.972;19.850;2023-03-15T04:31:14;3.8;;;1.7;;
51194;SDS011;37259;49.972;19.850;2023-03-15T04:32:14;3.8;;;1.7;;
51194;SDS011;37259;49.972;19.850;2023-03-15T04:33:14;3.8;;;1.7;;
51194;SDS011;37259;49.972;19.850;2023-03-15T04:34:14;3.8;;;1.7;;
51194;SDS011;37259;49.972;19.850;2023-03-15T04:35:14;3.8;;;1.7;;
51194;SDS011;37259;49.972;19.850;2023-03-15T04:36:14;3.8;;;1.7;;
51194;SDS011;37259;49.972;19.850;2023-03-15T04:37:14;3.8;;;1.7;;
51194;SDS011;37259;49.972;19.850;2023-03-15T04:38:14;4.9;;;2.7;;
51194;SDS011;37259;49.972;19.850;2023-03-15T04:39:14;4.9;;;2.7;;
51194;SDS011;37259;49.972;19.850;2023-03-15T04:40:14;4.9;;;2.7;;
51194;SDS011;37259;49.972;19.850;2023-03-15T04:41:14;4.9;;;2.7;;
51194;SDS011;37259;49.972;19.850;2023-03-15T04:42:14;4.9;;;2.7;;
51194;SDS011;37259;49.972;19.850;2023-03-15T04:43:14;4.9;;;2.7;;
51194;SDS011;37259;49.972;19.850;2023-03-15T04:44:14;4.9;;;2.7;;
51194;SDS011;37259;49.972;19.850;2023-03-15T04:45:14;4.9;;;2.7;;
51194;SDS011;37259;49.972;19.850;2023-03-15T04:46:14;4.9;;;2.7;;
51194;SDS011;37259;49.972;19.850;2023-03-15T04:47:14;4.9;;;2.7;;
51194;SDS011;37259;49.972;19.850;2023-03-15T04:48:14;4.9;;;2.7;;
51194;SDS011;37259;49.972;19.850;2023-03-15T04:49:14;4.9;;;2.7;;
51194;SDS011;37259;49.972;19.850;2023-03-15T04:50:14;4.9;;;2.7;;
51194;SDS011;37259;49.972;19.850;2023-03-15T04:51:14;4.9;;;2.7;;
51194;SDS011;37259;49.972;19.850;2023-03-15T04:52:14;4.9;;;2.7;;
51194;SDS011;37259;49.972;19.850;2023-03-15T04:53:14;4.9;;;2.7;;
51194;SDS011;37259;49.972;19.850;2023-03-15T04:54:14;4.9;;;2.7;;
51194;SDS011;37259;49.972;19.850;2023-03-15T04:55:14;4.9;;;2.7;;
51194;SDS011;37259;49.972;19.850;2023-03-15T04:56:14;4.9;;;2.7;;
51194;SDS011;37259;49.972;19.850;2023-03-15T04:57:14;4.9;;;2.7;;
51194;SDS011;37259;49.972;19.850;2023-03-15T04:58:14;4.9;;;2.7;;
51194;SDS011;37259;49.972;19.850;2023-03-15T04:59:14;4.9;;;2.7;;
51194;SDS011;37259;49.972;19.850;2023-03-15T05:00:14;4.9;;;2.7;;
51194;SDS011;37259;49.972;19.850;2023-03-15T05:01:14;4.9;;;2.7;;
51194;SDS011;37259;49.972;19.850;2023-03-15T05:02:14;4.9;;;2.7;;
51194;SDS011;37259;49.972;19.850;2023-03-15T05:03:14;4.9;;;2.7;;
51194;SDS011;37259;49.972;19.850;2023-03-15T05:04:14;4.9;;;2.7;;
51194;SDS011;37259;49.972;19.850;2023-03-15T05:05:14;4.9;;;2.7;;
51194;SDS011;37259;49.972;19.850;2023-03-15T05:06:14;4.9;;;2.7;;
51194;SDS011;37259;49.972;19.850;2023-03-15T05:07:14;4.9;;;2.7;;
51194;SDS011;37259;49.972;19.850;2023-03-15T05:08:14;4.1;;;2.7;;
51194;SDS011;37259;49.972;19.850;2023-03-15T05:09:14;4.1;;;2.7;;
51194;SDS011;37259;49.972;19.850;2023-03-15T05:10:14;4.1;;;2.7;;
51194;SDS011;37259;49.972;19.850;2023-03-15T05:11:14;4.1;;;2.7;;
51194;SDS011;37259;49.972;19.850;2023-03-15T05:12:14;4.1;;;2.7;;
51194;SDS011;37259;49.972;19.850;2023-03-15T05:13:14;4.1;;;2.7;;
51194;SDS011;37259;49.972;19.850;2023-03-15T05:14:14;4.1;;;2.7;;
51194;SDS011;37259;49.972;19.850;2023-03-15T05:15:14;4.1;;;2.7;;
51194;SDS011;37259;49.972;19.850;2023-03-15T05:16:14;4.1;;;2.7;;
51194;SDS011;37259;49.972;19.850;2023-03-15T05:17:14;4.1;;;2.7;;
51194;SDS011;37259;49.972;19.850;2023-03-15T05:18:14;4.1;;;2.7;;
51194;SDS011;37259;49.972;19.850;2023-03-15T05:19:14;4.1;;;2.7;;
51194;SDS011;37259;49.972;19.850;2023-03-15T05:20:14;4.1;;;2.7;;
51194;SDS011;37259;49.972;19.850;2023-03-15T05:21:14;4.1;;;2.7;;
51194;SDS011;37259;49.972;19.850;2023-03-15T05:22:14;4.1;;;2.7;;
51194;SDS011;37259;49.972;19.850;2023-03-15T05:23:14;4.1;;;2.7;;
51194;SDS011;37259;49.972;19.850;2023-03-15T05:24:14;4.1;;;2.7;;
51194;SDS011;37259;49.972;19.850;2023-03-15T05:25:14;4.1;;;2.7;;
51194;SDS011;37259;49.972;19.850;2023-03-15T05:26:14;4.1;;;2.7;;
51194;SDS011;37259;49.972;19.850;2023-03-15T05:27:14;4.1;;;2.7;;
51194;SDS011;37259;49.972;19.850;2023-03-15T05:28:14;4.1;;;2.7;;
51194;SDS011;37259;49.972;19.850;2023-03-15T05:29:14;4.1;;;2.7;;
51194;SDS011;37259;49.972;19.850;2023-03-15T05:30:14;4.1;;;2.7;;
51194;SDS011;37259;49.972;19.850;2023-03-15T05:31:14;4.1;;;2.7;;
51194;SDS011;37259;49.972;19.850;2023-03-15T05:32:14;4.1;;;2.7;;
51194;SDS011;37259;49.972;19.850;2023-03-15T05:33:14;4.1;;;2.7;;
51194;SDS011;37259;49.972;19.850;2023-03-15T05:34:14;4.1;;;2.7;;
51194;SDS011;37259;49.972;19.850;2023-03-15T05:35:14;4.1;;;2.7;;
51194;SDS011;37259;49.972;19.850;2023-03-15T05:36:14;4.1;;;2.7;;
51194;SDS011;37259;49.972;19.850;2023-03-15T05:37:14;7.2;;;2.3;;
51194;SDS011;37259;49.972;19.850;2023-03-15T05:38:14;7.2;;;2.3;;
51194;SDS011;37259;49.972;19.850;2023-03-15T05:39:14;7.2;;;2.3;;
51194;SDS011;37259;49.972;19.850;2023-03-15T05:40:14;7.2;;;2.3;;
51194;SDS011;37259;49.972;19.850;2023-03-15T05:41:14;7.2;;;2.3;;
51194;SDS011;37259;49.972;19.850;2023-03-15T05:42:14;7.2;;;2.3;;
51194;SDS011;37259;49.972;19.850;2023-03-15T05:43:14;7.2;;;2.3;;
51194;SDS011;37259;49.972;19.850;2023-03-15T05:44:14;7.2;;;2.3;;
51194;SDS011;37259;49.972;19.850;2023-03-15T05:45:14;7.2;;;2.3;;
51194;SDS011;37259;49.972;19.850;2023-03-15T05:46:14;7.2;;;2.3;;
51194;SDS011;37259;49.972;19.850;2023-03-15T05:47:14;7.2;;;2.3;;
51194;SDS011;37259;49.972;19.850;2023-03-15T05:48:14;7.2;;;2.3;;
51194;SDS011;37259;49.972;19.850;2023-03-15T05:49:14;7.2;;;2.3;;
51194;SDS011;37259;49.972;19.850;2023-03-15T05:50:14;7.2;;;2.3;;
51194;SDS011;37259;49.972;19.850;2023-03-15T05:51:14;7.2;;;2.3;;
51194;SDS011;37259;49.972;19.850;2023-03-15T05:52:14;7.2;;;2.3;;
51194;SDS011;37259;49.972;19.850;2023-03-15T05:53:14;7.2;;;2.3;;
51194;SDS011;37259;49.972;19.850;2023-03-15T05:54:14;7.2;;;2.3;;
51194;SDS011;37259;49.972;19.850;2023-03-15T05:55:14;7.2;;;2.3;;
51194;SDS011;37259;49.972;19.850;2023-03-15T05:56:14;7.2;;;2.3;;
51194;SDS011;37259;49.972;19.850;2023-03-15T05:57:14;7.2;;;2.3;;
51194;SDS011;37259;49.972;19.850;2023-03-15T05:58:14;7.2;;;2.3;;
51194;SDS011;37259;49.972;19.850;2023-03-15T05:59:14;7.2;;;2.3;;
51194;SDS011;37259;49.972;19.850;2023-03-15T06:00:14;7.2;;;2.3;;
51194;SDS011;37259;49.972;19.850;2023-03-15T06:01:14;7.2;;;2.3;;
51194;SDS011;37259;49.972;19.850;2023-03-15T06:02:14;7.2;;;2.3;;
51194;SDS011;37259;49.972;19.850;2023-03-15T06:03:14;7.2;;;2.3;;
51194;SDS011;37259;49.972;19.850;2023-03-15T06:04:14;7.2;;;2.3;;
51194;SDS011;37259;49.972;19.850;2023-03-15T06:05:14;7.2;;;2.3;;
51194;SDS011;37259;49.972;19.850;2023-03-15T06:06:14;7.2;;;2.3;;
51194;SDS011;37259;49.972;19.850;2023-03-15T06:07:14;9.7;;;2.6;;
51194;SDS011;37259;49.972;19.850;2023-03-15T06:08:14;9.7;;;2.6;;
51194;SDS011;37259;49.972;19.850;2023-03-15T06:09:14;9.7;;;2.6;;
51194;SDS011;37259;49.972;19.850;2023-03-15T06:10:14;9.7;;;2.6;;